Time;durP1;ratioP1;P1;durP2;ratioP2;P2;SDS_P1;SDS_P2;PMS_P1;PMS_P2;Temp;Humidity;BMP_temperature;BMP_pressure;BME280_temperature;BME280_humidity;BME280_pressure;Samples;Min_cycle;Max_cycle;Signal;HPM_P1;HPM_P2
2022/11/08 00:03:47;;;;;;;2.60;1.90;;;8.00;99.90;;;;;;5110860;28;20737;-82
2022/11/08 00:14:27;;;;;;;3.10;2.30;;;7.80;99.90;;;;;;5110509;28;20629;-81
2022/11/08 00:16:54;;;;;;;1.60;1.50;;;7.70;99.90;;;;;;5119113;27;21315;-82
2022/11/08 00:19:22;;;;;;;6.60;2.30;;;7.70;99.90;;;;;;5130863;27;20710;-81
2022/11/08 00:21:49;;;;;;;2.50;2.13;;;7.60;99.90;;;;;;5131140;27;20215;-81
2022/11/08 00:24:16;;;;;;;2.20;2.07;;;7.80;99.90;;;;;;5130798;27;20737;-81
2022/11/08 00:26:43;;;;;;;2.50;2.20;;;7.60;99.90;;;;;;5130420;27;20734;-82
2022/11/08 00:29:10;;;;;;;1.57;1.30;;;7.70;99.90;;;;;;5109872;28;20616;-82
2022/11/08 00:31:36;;;;;;;2.67;1.83;;;7.70;99.90;;;;;;5109748;28;20622;-82
2022/11/08 00:34:03;;;;;;;2.17;2.07;;;7.60;99.90;;;;;;5109994;28;20663;-81
2022/11/08 00:36:32;;;;;;;3.77;2.47;;;7.50;99.90;;;;;;5109825;28;21142;-82
2022/11/08 00:38:58;;;;;;;4.70;3.70;;;7.40;99.90;;;;;;5110210;28;21036;-81
2022/11/08 00:41:25;;;;;;;2.60;2.40;;;7.50;99.90;;;;;;5109894;28;20712;-81
2022/11/08 00:43:52;;;;;;;3.77;2.83;;;7.40;99.90;;;;;;5109666;28;20672;-81
2022/11/08 00:46:19;;;;;;;4.10;2.10;;;7.50;99.90;;;;;;5109055;28;20618;-82
2022/11/08 00:48:46;;;;;;;1.60;1.50;;;7.20;99.90;;;;;;5109646;28;20895;-82
2022/11/08 00:51:13;;;;;;;3.93;2.60;;;7.40;99.90;;;;;;5109894;28;20637;-81
2022/11/08 00:53:41;;;;;;;2.83;2.03;;;7.40;99.90;;;;;;5109750;28;20663;-82
2022/11/08 00:56:10;;;;;;;3.47;2.47;;;7.30;99.90;;;;;;5109406;28;21164;-81
2022/11/08 00:58:37;;;;;;;2.90;2.70;;;7.40;99.90;;;;;;5112120;27;20710;-82
2022/11/08 01:01:09;;;;;;;4.78;2.45;;;7.40;99.90;;;;;;5130105;27;20619;-81
2022/11/08 01:03:36;;;;;;;2.60;2.40;;;7.30;99.90;;;;;;5130238;27;20200;-82
2022/11/08 01:06:05;;;;;;;2.03;1.60;;;7.20;99.90;;;;;;5129837;27;20623;-81
2022/11/08 01:08:33;;;;;;;2.20;2.00;;;7.30;99.90;;;;;;5130015;27;20722;-82
2022/11/08 01:11:05;;;;;;;4.97;1.93;;;7.20;99.90;;;;;;5130041;27;20621;-81
2022/11/08 01:13:32;;;;;;;6.38;3.10;;;7.20;99.90;;;;;;5129988;27;20765;-82
2022/11/08 01:16:05;;;;;;;3.40;3.10;;;7.20;99.90;;;;;;5129209;27;20201;-82
2022/11/08 01:18:32;;;;;;;4.57;3.27;;;7.30;99.90;;;;;;5129971;27;20695;-82
2022/11/08 01:20:59;;;;;;;2.33;2.03;;;7.20;99.90;;;;;;5129704;27;20647;-81
2022/11/08 01:23:25;;;;;;;11.47;3.40;;;7.00;99.90;;;;;;5129412;27;20692;-81
2022/11/08 01:25:52;;;;;;;4.27;2.87;;;7.20;99.90;;;;;;5128924;27;20611;-82
2022/11/08 01:28:20;;;;;;;4.63;3.23;;;7.30;99.90;;;;;;5129138;27;20625;-81
2022/11/08 01:30:47;;;;;;;2.87;2.17;;;7.10;99.90;;;;;;5129467;27;21177;-82
2022/11/08 01:33:15;;;;;;;2.00;1.73;;;7.00;99.90;;;;;;5125769;27;21616;-82
2022/11/08 01:35:46;;;;;;;3.30;3.00;;;7.00;99.90;;;;;;5108707;28;21250;-81
2022/11/08 01:38:13;;;;;;;6.30;3.10;;;8.30;99.90;;;;;;5108295;28;20201;-82
2022/11/08 01:40:43;;;;;;;6.33;4.13;;;6.90;99.90;;;;;;5108601;28;20620;-82
2022/11/08 01:43:37;;;;;;;4.63;3.38;;;6.90;99.90;;;;;;5108831;28;20689;-82
2022/11/08 01:46:30;;;;;;;3.47;3.17;;;6.90;99.90;;;;;;5108897;28;20308;-81
2022/11/08 01:49:16;;;;;;;3.03;2.77;;;6.90;99.90;;;;;;5105925;28;20225;-82
2022/11/08 01:51:47;;;;;;;3.23;2.87;;;7.00;99.90;;;;;;5095912;28;20730;-81
2022/11/08 01:54:19;;;;;;;2.58;2.38;;;6.90;99.90;;;;;;5108844;28;20770;-82
2022/11/08 01:56:46;;;;;;;3.70;2.42;;;6.90;99.90;;;;;;5108433;28;20286;-81
2022/11/08 01:59:18;;;;;;;1.98;1.50;;;6.80;99.90;;;;;;5115267;27;20279;-82
2022/11/08 02:01:45;;;;;;;2.07;1.97;;;6.90;99.90;;;;;;5128816;27;20197;-81
2022/11/08 02:04:13;;;;;;;2.63;2.42;;;6.90;99.90;;;;;;5128864;27;20737;-81
2022/11/08 02:06:41;;;;;;;2.42;1.75;;;7.00;99.90;;;;;;5128969;27;20284;-82
2022/11/08 02:09:13;;;;;;;2.30;2.10;;;7.00;99.90;;;;;;5128522;27;20278;-82
2022/11/08 02:11:41;;;;;;;1.63;1.52;;;6.90;99.90;;;;;;5128421;27;20194;-82
2022/11/08 02:14:09;;;;;;;1.35;1.25;;;6.90;99.90;;;;;;5128507;27;20221;-82
2022/11/08 02:16:37;;;;;;;4.30;2.60;;;6.80;99.90;;;;;;5128661;27;20259;-82
2022/11/08 02:19:08;;;;;;;1.55;1.42;;;6.90;99.90;;;;;;5128634;27;21171;-81
2022/11/08 02:21:42;;;;;;;3.47;2.05;;;6.80;99.90;;;;;;5128972;27;20565;-81
2022/11/08 02:24:12;;;;;;;2.08;1.80;;;6.80;99.90;;;;;;5127896;27;20695;-82
2022/11/08 02:26:39;;;;;;;2.17;2.00;;;6.90;99.90;;;;;;5128869;27;20201;-81
2022/11/08 02:29:24;;;;;;;4.18;2.13;;;6.80;99.90;;;;;;5112280;28;20194;-82
2022/11/08 02:31:52;;;;;;;3.08;2.65;;;6.70;99.90;;;;;;5111889;28;21439;-81
2022/11/08 02:34:21;;;;;;;2.60;2.05;;;6.70;99.90;;;;;;5124434;27;20229;-81
2022/11/08 02:36:50;;;;;;;1.92;1.83;;;6.70;99.90;;;;;;5132371;27;20199;-82
2022/11/08 02:39:18;;;;;;;5.10;2.83;;;6.70;99.90;;;;;;5132467;27;20204;-81
2022/11/08 02:41:45;;;;;;;3.27;3.00;;;6.70;99.90;;;;;;5133015;27;20673;-82
2022/11/08 02:44:12;;;;;;;2.58;2.38;;;6.70;99.90;;;;;;5132578;27;20595;-82
2022/11/08 02:46:40;;;;;;;2.05;1.45;;;6.70;99.90;;;;;;5132457;27;20313;-82
2022/11/08 02:49:07;;;;;;;3.47;2.35;;;6.60;99.90;;;;;;5131867;27;20197;-82
2022/11/08 02:51:33;;;;;;;2.58;2.33;;;6.70;99.90;;;;;;5132626;27;20285;-82
2022/11/08 02:54:00;;;;;;;2.20;1.63;;;6.70;99.90;;;;;;5132225;27;20246;-82
2022/11/08 02:56:29;;;;;;;2.42;2.03;;;6.70;99.90;;;;;;5132446;27;20193;-82
2022/11/08 02:58:56;;;;;;;2.50;1.83;;;6.80;99.90;;;;;;5127061;27;20198;-82
2022/11/08 03:01:23;;;;;;;2.13;2.00;;;7.10;99.90;;;;;;5111918;28;20206;-82
2022/11/08 03:03:49;;;;;;;1.60;1.35;;;6.70;99.90;;;;;;5111624;28;20278;-82
2022/11/08 03:06:16;;;;;;;1.30;1.20;;;6.70;99.90;;;;;;5111605;28;20288;-81
2022/11/08 03:08:43;;;;;;;1.88;1.77;;;6.70;99.90;;;;;;5111651;28;20716;-81
2022/11/08 03:11:10;;;;;;;3.22;2.50;;;6.70;99.90;;;;;;5111559;28;20226;-80
2022/11/08 03:13:39;;;;;;;2.42;2.22;;;6.60;99.90;;;;;;5111349;28;20209;-81
2022/11/08 03:16:06;;;;;;;2.33;1.77;;;6.50;99.90;;;;;;5113133;27;20206;-81
2022/11/08 03:18:34;;;;;;;2.30;2.10;;;6.50;99.90;;;;;;5131809;27;20193;-81
2022/11/08 03:21:01;;;;;;;1.93;1.63;;;6.40;99.90;;;;;;5131982;27;20663;-81
2022/11/08 03:23:28;;;;;;;2.70;2.47;;;6.50;99.90;;;;;;5132250;27;20618;-80
2022/11/08 03:25:55;;;;;;;1.90;1.80;;;6.50;99.90;;;;;;5131765;27;20318;-81
2022/11/08 03:28:22;;;;;;;2.38;2.28;;;6.40;99.90;;;;;;5117204;27;20275;-81
2022/11/08 03:30:52;;;;;;;2.67;1.85;;;6.40;99.90;;;;;;5110661;28;20288;-81
2022/11/08 03:33:20;;;;;;;1.83;1.70;;;6.40;99.90;;;;;;5111003;28;20263;-81
2022/11/08 03:35:48;;;;;;;3.55;1.55;;;6.50;99.90;;;;;;5110996;27;20255;-81
2022/11/08 03:38:16;;;;;;;2.10;1.95;;;6.40;99.90;;;;;;5110686;28;20210;-81
2022/11/08 03:40:43;;;;;;;4.10;2.30;;;6.40;99.90;;;;;;5111334;28;20305;-82
2022/11/08 03:43:10;;;;;;;1.70;1.42;;;6.30;99.90;;;;;;5110883;28;20200;-82
2022/11/08 03:45:37;;;;;;;3.85;2.38;;;6.30;99.90;;;;;;5110817;28;20202;-81
2022/11/08 03:48:06;;;;;;;1.90;1.80;;;6.30;99.90;;;;;;5110906;27;20239;-81
2022/11/08 03:50:33;;;;;;;3.25;2.20;;;6.30;99.90;;;;;;5110888;28;20304;-81
2022/11/08 03:53:00;;;;;;;2.30;2.05;;;6.40;99.90;;;;;;5110664;28;20197;-81
2022/11/08 03:55:28;;;;;;;2.60;2.38;;;6.40;99.90;;;;;;5110676;28;20220;-81
2022/11/08 03:57:56;;;;;;;3.95;3.55;;;6.60;99.90;;;;;;5109883;28;20308;-81
2022/11/08 04:00:25;;;;;;;3.83;2.13;;;6.30;99.90;;;;;;5128183;27;20213;-81
2022/11/08 04:02:53;;;;;;;2.05;1.90;;;6.30;99.90;;;;;;5131321;27;20292;-81
2022/11/08 04:05:22;;;;;;;2.38;2.08;;;6.20;99.90;;;;;;5131443;27;20204;-81
2022/11/08 04:07:49;;;;;;;2.58;2.33;;;6.20;99.90;;;;;;5130964;27;20197;-81
2022/11/08 04:10:17;;;;;;;3.55;2.33;;;6.10;99.90;;;;;;5130609;27;20201;-81
2022/11/08 04:15:29;;;;;;;2.80;2.25;;;6.10;99.90;;;;;;5130832;27;20225;-81
2022/11/08 04:23:30;;;;;;;1.92;1.50;;;6.00;99.90;;;;;;5130631;27;20708;-81
2022/11/08 04:25:58;;;;;;;1.48;1.40;;;6.00;99.90;;;;;;5130754;27;20278;-81
2022/11/08 04:28:26;;;;;;;3.47;1.70;;;6.00;99.90;;;;;;5115433;27;20931;-81
2022/11/08 04:30:57;;;;;;;2.15;2.05;;;6.10;99.90;;;;;;5110183;28;20206;-81
2022/11/08 04:33:24;;;;;;;2.00;1.77;;;6.10;99.90;;;;;;5109393;28;20310;-81
2022/11/08 04:35:53;;;;;;;1.67;1.58;;;6.20;99.90;;;;;;5110066;28;20247;-81
2022/11/08 04:38:20;;;;;;;3.38;1.90;;;6.10;99.90;;;;;;5109884;28;20302;-81
2022/11/08 04:40:47;;;;;;;1.63;1.40;;;6.20;99.90;;;;;;5109648;28;20190;-81
2022/11/08 04:43:14;;;;;;;1.80;1.35;;;6.20;99.90;;;;;;5111424;28;20204;-82
2022/11/08 04:45:41;;;;;;;2.00;1.70;;;6.20;99.90;;;;;;5109310;28;20201;-83
2022/11/08 04:48:08;;;;;;;3.30;2.10;;;6.30;99.90;;;;;;5109478;28;20190;-82
2022/11/08 04:50:35;;;;;;;1.20;1.08;;;6.40;99.90;;;;;;5108583;28;20216;-82
2022/11/08 04:53:04;;;;;;;1.80;1.70;;;7.20;99.90;;;;;;5109721;28;20465;-81
2022/11/08 04:55:31;;;;;;;1.48;1.38;;;6.30;99.90;;;;;;5109458;28;20795;-82
2022/11/08 04:57:59;;;;;;;5.97;1.98;;;6.10;99.90;;;;;;5109738;28;20205;-81
2022/11/08 05:00:26;;;;;;;1.67;1.25;;;6.20;99.90;;;;;;5127197;27;20292;-82
2022/11/08 05:02:53;;;;;;;2.47;1.55;;;6.20;99.90;;;;;;5130196;27;20551;-81
2022/11/08 05:05:21;;;;;;;2.53;1.77;;;6.10;99.90;;;;;;5128649;27;20201;-81
2022/11/08 05:07:48;;;;;;;1.60;1.45;;;6.30;99.90;;;;;;5120074;27;20215;-81
2022/11/08 05:10:17;;;;;;;3.55;1.73;;;6.20;99.90;;;;;;5128607;27;20200;-81
2022/11/08 05:12:44;;;;;;;1.85;1.70;;;6.20;99.90;;;;;;5129037;27;20288;-82
2022/11/08 05:15:11;;;;;;;1.02;0.93;;;6.20;99.90;;;;;;5129010;27;20225;-82
2022/11/08 05:17:38;;;;;;;2.28;1.30;;;6.30;99.90;;;;;;5129139;27;20192;-81
2022/11/08 05:25:42;;;;;;;1.13;1.10;;;6.50;99.90;;;;;;5125123;27;20210;-81
2022/11/08 05:28:09;;;;;;;2.53;1.52;;;6.60;99.90;;;;;;5123315;27;20200;-81
2022/11/08 05:30:36;;;;;;;1.50;1.40;;;6.50;99.90;;;;;;5129159;27;20293;-81
2022/11/08 05:33:03;;;;;;;13.45;1.90;;;6.60;99.90;;;;;;5127790;27;20283;-81
2022/11/08 05:35:30;;;;;;;1.92;1.83;;;6.50;99.90;;;;;;5108573;28;20651;-82
2022/11/08 05:37:56;;;;;;;1.85;1.27;;;6.60;99.90;;;;;;5107751;28;20293;-81
2022/11/08 05:40:23;;;;;;;1.70;1.60;;;6.50;99.90;;;;;;5111387;27;20296;-81
2022/11/08 05:42:53;;;;;;;1.27;1.17;;;6.50;99.90;;;;;;5116885;27;20805;-81
2022/11/08 05:45:20;;;;;;;1.42;0.88;;;6.50;99.90;;;;;;5119348;27;20683;-83
2022/11/08 05:47:48;;;;;;;2.03;1.60;;;6.50;99.90;;;;;;5116758;27;20274;-83
2022/11/08 05:50:17;;;;;;;2.70;1.33;;;6.50;99.90;;;;;;5118182;27;20193;-84
2022/11/08 05:52:44;;;;;;;3.35;1.95;;;6.50;99.90;;;;;;5116506;27;20695;-83
2022/11/08 05:55:11;;;;;;;1.90;1.73;;;6.60;99.90;;;;;;5111538;27;20233;-82
2022/11/08 05:57:42;;;;;;;5.20;2.28;;;6.50;99.90;;;;;;5107975;28;20297;-82
2022/11/08 06:00:11;;;;;;;2.15;1.20;;;6.60;99.90;;;;;;5123590;27;20201;-82
2022/11/08 06:02:38;;;;;;;1.35;1.25;;;6.50;99.90;;;;;;5128612;27;20336;-83
2022/11/08 06:05:06;;;;;;;1.98;1.85;;;6.50;99.90;;;;;;5126549;27;20189;-82
2022/11/08 06:07:33;;;;;;;1.95;1.77;;;6.50;99.90;;;;;;5128204;27;20246;-83
2022/11/08 06:10:00;;;;;;;4.90;1.88;;;6.50;99.90;;;;;;5127382;27;20201;-82
2022/11/08 06:12:27;;;;;;;2.95;2.40;;;6.50;99.90;;;;;;5128903;27;20724;-82
2022/11/08 06:14:54;;;;;;;5.25;3.00;;;6.50;99.90;;;;;;5128055;27;20281;-82
2022/11/08 06:17:22;;;;;;;2.65;1.83;;;6.50;99.90;;;;;;5127410;27;20457;-84
2022/11/08 06:19:49;;;;;;;4.80;2.53;;;6.60;99.90;;;;;;5128689;27;20193;-83
2022/11/08 06:22:16;;;;;;;1.58;1.48;;;6.60;99.90;;;;;;5128480;27;20212;-82
2022/11/08 06:24:42;;;;;;;1.30;1.20;;;6.60;99.90;;;;;;5128262;27;20197;-82
2022/11/08 06:27:09;;;;;;;2.28;1.88;;;6.70;99.90;;;;;;5127949;27;20269;-82
2022/11/08 06:29:36;;;;;;;3.35;1.90;;;6.70;99.90;;;;;;5110147;27;20626;-82
2022/11/08 06:32:03;;;;;;;3.25;1.27;;;6.60;99.90;;;;;;5107478;28;20236;-82
2022/11/08 06:34:31;;;;;;;3.53;2.17;;;6.70;99.90;;;;;;5107878;28;20250;-85
2022/11/08 06:36:59;;;;;;;3.42;2.65;;;6.70;99.90;;;;;;5107146;28;20668;-82
2022/11/08 06:39:26;;;;;;;1.25;1.17;;;6.70;99.90;;;;;;5108266;28;20201;-82
2022/11/08 06:41:53;;;;;;;1.42;1.15;;;6.70;99.90;;;;;;5107528;28;20212;-82
2022/11/08 06:44:19;;;;;;;2.00;1.60;;;6.70;99.90;;;;;;5107944;28;20672;-82
2022/11/08 06:46:46;;;;;;;3.47;2.55;;;6.70;99.90;;;;;;5106545;28;20664;-82
2022/11/08 06:49:13;;;;;;;1.85;1.67;;;6.70;99.90;;;;;;5108194;28;20377;-82
2022/11/08 06:51:41;;;;;;;2.47;1.95;;;6.90;99.90;;;;;;5107975;28;20246;-82
2022/11/08 06:54:08;;;;;;;2.28;1.83;;;6.60;99.90;;;;;;5108217;28;20206;-83
2022/11/08 06:56:35;;;;;;;1.83;1.52;;;6.80;99.90;;;;;;5107075;28;20299;-82
2022/11/08 06:59:02;;;;;;;1.90;1.40;;;6.90;99.90;;;;;;5113395;27;20768;-83
2022/11/08 07:01:29;;;;;;;1.42;1.30;;;6.90;99.90;;;;;;5128329;27;20204;-83
2022/11/08 07:03:56;;;;;;;2.65;1.98;;;6.90;99.90;;;;;;5128462;27;20197;-82
2022/11/08 07:06:23;;;;;;;4.70;2.20;;;6.90;99.90;;;;;;5127657;28;20733;-81
2022/11/08 07:08:51;;;;;;;1.50;1.40;;;6.90;99.90;;;;;;5126704;28;20208;-81
2022/11/08 07:11:18;;;;;;;5.53;2.22;;;7.00;99.90;;;;;;5128211;27;20225;-82
2022/11/08 07:13:46;;;;;;;3.33;2.17;;;7.10;99.90;;;;;;5129291;27;20270;-81
2022/11/08 07:16:13;;;;;;;2.97;2.22;;;7.10;99.90;;;;;;5131469;27;20706;-83
2022/11/08 07:18:40;;;;;;;1.70;1.60;;;7.40;99.90;;;;;;5131815;27;20201;-81
2022/11/08 07:21:07;;;;;;;2.22;1.50;;;7.40;99.90;;;;;;5131958;27;20671;-82
2022/11/08 07:23:34;;;;;;;2.50;2.30;;;7.40;99.90;;;;;;5131998;27;20198;-82
2022/11/08 07:26:03;;;;;;;1.38;1.27;;;7.40;99.90;;;;;;5132089;27;20687;-82
2022/11/08 07:28:31;;;;;;;1.98;1.88;;;7.50;99.90;;;;;;5125349;27;20190;-84
2022/11/08 07:30:59;;;;;;;1.67;1.40;;;7.60;99.90;;;;;;5111571;28;20209;-82
2022/11/08 07:33:26;;;;;;;2.50;1.60;;;7.60;99.90;;;;;;5110868;28;20202;-82
2022/11/08 07:35:53;;;;;;;1.98;1.88;;;7.70;99.90;;;;;;5110868;28;20238;-81
2022/11/08 07:38:20;;;;;;;1.83;1.73;;;7.70;99.90;;;;;;5110786;28;20239;-81
2022/11/08 07:40:47;;;;;;;5.20;2.20;;;7.80;99.90;;;;;;5110673;28;20712;-82
2022/11/08 07:43:15;;;;;;;1.90;1.73;;;7.80;99.90;;;;;;5111245;28;20661;-81
2022/11/08 07:45:42;;;;;;;1.33;1.23;;;7.80;99.90;;;;;;5111001;28;20190;-81
2022/11/08 07:48:11;;;;;;;2.50;1.77;;;7.80;99.90;;;;;;5110144;28;21200;-81
2022/11/08 07:50:38;;;;;;;1.80;1.70;;;7.80;99.90;;;;;;5111062;28;20989;-81
2022/11/08 07:53:05;;;;;;;1.40;1.30;;;7.80;99.90;;;;;;5111071;28;20608;-81
2022/11/08 07:55:32;;;;;;;1.50;1.40;;;7.80;99.90;;;;;;5110191;28;20708;-81
2022/11/08 07:58:01;;;;;;;2.57;2.00;;;7.80;99.90;;;;;;5110176;28;20607;-81
2022/11/08 08:00:29;;;;;;;2.80;1.47;;;8.00;99.90;;;;;;5129459;27;21400;-80
2022/11/08 08:02:59;;;;;;;1.70;1.60;;;8.10;99.90;;;;;;5131495;27;20675;-80
2022/11/08 08:05:27;;;;;;;1.40;1.23;;;8.10;99.90;;;;;;5131712;27;20675;-80
2022/11/08 08:07:56;;;;;;;2.00;1.80;;;8.20;99.90;;;;;;5130298;27;20610;-79
2022/11/08 08:10:23;;;;;;;2.30;1.67;;;8.30;99.90;;;;;;5130376;27;20621;-80
2022/11/08 08:12:50;;;;;;;1.53;1.43;;;8.40;99.90;;;;;;5131099;27;20953;-80
2022/11/08 08:15:17;;;;;;;1.77;0.93;;;8.50;99.90;;;;;;5130571;27;20764;-81
2022/11/08 08:17:46;;;;;;;3.13;1.93;;;8.70;99.90;;;;;;5130059;27;20748;-81
2022/11/08 08:20:14;;;;;;;1.73;1.63;;;8.80;99.90;;;;;;5130736;27;20703;-81
2022/11/08 08:22:44;;;;;;;2.13;1.90;;;8.90;99.90;;;;;;5130669;27;20615;-81
2022/11/08 08:25:11;;;;;;;1.20;1.10;;;9.10;99.90;;;;;;5130813;27;20598;-81
2022/11/08 08:27:37;;;;;;;1.93;1.80;;;9.30;99.90;;;;;;5128797;27;20714;-81
2022/11/08 08:30:06;;;;;;;1.93;1.73;;;9.50;99.90;;;;;;5110063;28;20623;-81
2022/11/08 08:32:33;;;;;;;1.80;1.40;;;9.60;99.90;;;;;;5110597;28;21173;-82
2022/11/08 08:35:01;;;;;;;1.70;1.60;;;9.70;99.90;;;;;;5109060;28;21324;-81
2022/11/08 08:37:28;;;;;;;1.53;1.47;;;9.80;99.90;;;;;;5109787;28;20714;-81
2022/11/08 08:39:55;;;;;;;1.70;1.20;;;9.90;99.90;;;;;;5110274;28;20668;-81
2022/11/08 08:42:22;;;;;;;1.40;1.17;;;10.00;99.90;;;;;;5108673;28;20620;-81
2022/11/08 08:44:49;;;;;;;1.43;1.20;;;10.30;99.90;;;;;;5109870;28;20608;-81
2022/11/08 08:47:16;;;;;;;0.90;0.90;;;10.30;99.90;;;;;;5108941;28;21237;-81
2022/11/08 08:49:42;;;;;;;0.90;0.83;;;10.30;99.90;;;;;;5109251;28;22047;-81
2022/11/08 08:52:11;;;;;;;1.33;1.23;;;10.50;99.90;;;;;;5110174;28;20654;-81
2022/11/08 08:54:37;;;;;;;1.00;1.00;;;10.60;99.90;;;;;;5109550;28;21330;-81
2022/11/08 08:57:04;;;;;;;1.37;1.23;;;10.50;99.90;;;;;;5109083;28;20616;-81
2022/11/08 08:59:31;;;;;;;1.13;1.03;;;10.50;99.90;;;;;;5119522;27;20614;-81
2022/11/08 09:01:59;;;;;;;0.73;0.73;;;10.50;99.90;;;;;;5129695;27;20709;-81
2022/11/08 09:04:26;;;;;;;0.80;0.80;;;10.50;99.90;;;;;;5130337;27;21054;-81
2022/11/08 09:06:53;;;;;;;0.70;0.70;;;10.50;99.90;;;;;;5129205;27;20722;-81
2022/11/08 09:09:22;;;;;;;1.37;1.27;;;10.60;99.90;;;;;;5129906;27;20702;-80
2022/11/08 09:11:49;;;;;;;1.30;1.20;;;10.70;99.90;;;;;;5129824;27;21203;-80
2022/11/08 09:14:15;;;;;;;11.33;1.33;;;10.70;99.90;;;;;;5129700;27;20646;-81
2022/11/08 09:16:42;;;;;;;0.90;0.87;;;10.70;99.90;;;;;;5128710;27;20665;-81
2022/11/08 09:19:10;;;;;;;0.90;0.90;;;10.80;99.90;;;;;;5129669;27;20718;-81
2022/11/08 09:21:36;;;;;;;1.10;1.00;;;10.90;99.90;;;;;;5129570;27;21182;-81
2022/11/08 09:24:05;;;;;;;1.67;1.00;;;11.20;99.70;;;;;;5130260;27;21025;-82
2022/11/08 09:26:33;;;;;;;1.10;1.00;;;11.30;99.60;;;;;;5129339;27;20611;-82
2022/11/08 09:29:00;;;;;;;0.80;0.80;;;11.30;99.70;;;;;;5116305;27;20612;-82
2022/11/08 09:31:27;;;;;;;3.30;0.93;;;11.40;99.90;;;;;;5109568;28;20718;-81
2022/11/08 09:33:54;;;;;;;1.43;1.00;;;11.50;99.70;;;;;;5109532;28;20648;-82
2022/11/08 09:36:21;;;;;;;1.20;1.10;;;11.60;99.80;;;;;;5108622;28;20659;-82
2022/11/08 09:38:47;;;;;;;1.00;0.90;;;11.60;99.70;;;;;;5109580;28;20707;-81
2022/11/08 09:41:32;;;;;;;1.03;1.00;;;11.60;99.70;;;;;;5109289;28;20620;-81
2022/11/08 09:44:20;;;;;;;1.00;0.90;;;11.80;99.90;;;;;;5109738;28;20707;-82
2022/11/08 09:46:51;;;;;;;0.70;0.53;;;11.90;99.00;;;;;;5108971;28;20662;-81
2022/11/08 09:49:22;;;;;;;0.60;0.60;;;12.00;98.50;;;;;;5109643;28;20615;-82
2022/11/08 09:51:49;;;;;;;0.70;0.70;;;12.40;98.20;;;;;;5109672;28;20668;-81
2022/11/08 09:54:22;;;;;;;2.57;0.90;;;12.40;97.60;;;;;;5108774;28;20627;-81
2022/11/08 09:56:51;;;;;;;0.93;0.60;;;12.40;96.70;;;;;;5109304;28;20709;-81
2022/11/08 09:59:29;;;;;;;0.70;0.70;;;12.60;96.10;;;;;;5118056;27;20623;-82
2022/11/08 10:01:56;;;;;;;0.70;0.70;;;12.80;95.00;;;;;;5132094;27;20610;-81
2022/11/08 10:04:26;;;;;;;0.50;0.50;;;12.90;94.40;;;;;;5130237;27;20626;-82
2022/11/08 10:07:02;;;;;;;1.43;1.33;;;12.90;95.00;;;;;;5129466;27;20634;-81
2022/11/08 10:09:53;;;;;;;0.50;0.30;;;12.90;95.30;;;;;;5128256;27;20635;-81
2022/11/08 10:12:25;;;;;;;0.50;0.50;;;12.90;94.90;;;;;;5129820;27;20623;-81
2022/11/08 10:15:13;;;;;;;0.80;0.80;;;12.80;96.10;;;;;;5128275;27;20630;-81
2022/11/08 10:17:56;;;;;;;1.60;1.00;;;12.80;95.00;;;;;;5128566;28;20651;-81
2022/11/08 10:20:34;;;;;;;0.57;0.50;;;12.80;95.40;;;;;;5129141;27;20966;-81
2022/11/08 10:23:13;;;;;;;0.70;0.67;;;12.90;94.50;;;;;;5128931;27;20621;-80
2022/11/08 10:25:44;;;;;;;0.60;0.50;;;12.90;95.00;;;;;;5129058;27;20617;-80
2022/11/08 10:28:15;;;;;;;1.13;1.03;;;12.90;94.90;;;;;;5122873;27;20615;-80
2022/11/08 10:30:48;;;;;;;1.07;0.87;;;12.90;95.40;;;;;;5109318;28;20650;-80
2022/11/08 10:33:18;;;;;;;0.40;0.40;;;13.00;94.40;;;;;;5108879;28;20626;-80
2022/11/08 10:35:49;;;;;;;1.10;1.00;;;13.00;94.50;;;;;;5108586;28;21247;-81
2022/11/08 10:38:19;;;;;;;1.13;1.03;;;12.90;95.20;;;;;;5108748;28;21261;-80
2022/11/08 10:40:56;;;;;;;0.60;0.60;;;12.90;96.20;;;;;;5110095;28;20608;-80
2022/11/08 10:43:32;;;;;;;0.77;0.77;;;12.90;95.70;;;;;;5109075;28;21487;-80
2022/11/08 10:46:00;;;;;;;2.20;1.33;;;12.90;95.70;;;;;;5109316;28;20639;-80
2022/11/08 10:48:27;;;;;;;2.00;1.23;;;13.00;95.50;;;;;;5109144;28;21100;-81
2022/11/08 10:50:55;;;;;;;1.27;0.90;;;13.10;95.20;;;;;;5112578;28;20711;-81
2022/11/08 10:53:26;;;;;;;0.53;0.53;;;13.10;95.20;;;;;;5112421;28;20619;-80
2022/11/08 10:55:59;;;;;;;1.70;0.50;;;13.70;95.40;;;;;;5112511;28;21017;-81
2022/11/08 10:58:37;;;;;;;0.70;0.60;;;13.40;95.10;;;;;;5112951;27;20628;-81
2022/11/08 11:01:14;;;;;;;1.70;1.10;;;13.40;96.10;;;;;;5133930;27;21156;-81
2022/11/08 11:03:41;;;;;;;1.20;1.10;;;13.60;95.20;;;;;;5134229;27;20713;-81
2022/11/08 11:06:22;;;;;;;3.17;1.47;;;13.50;95.10;;;;;;5134434;27;20652;-81
2022/11/08 11:08:49;;;;;;;1.63;1.53;;;13.60;95.10;;;;;;5132900;27;20660;-81
2022/11/08 11:11:34;;;;;;;1.70;1.00;;;13.70;95.20;;;;;;5133586;27;20682;-82
2022/11/08 11:14:12;;;;;;;0.77;0.77;;;13.80;94.40;;;;;;5134330;27;20721;-81
2022/11/08 11:16:52;;;;;;;1.27;1.00;;;13.80;94.40;;;;;;5133417;27;20733;-80
2022/11/08 11:19:19;;;;;;;0.70;0.70;;;13.90;93.80;;;;;;5133439;27;20611;-81
2022/11/08 11:21:52;;;;;;;0.80;0.80;;;14.00;94.10;;;;;;5133257;27;20611;-81
2022/11/08 11:24:20;;;;;;;1.30;1.20;;;14.10;94.00;;;;;;5133882;27;20804;-81
2022/11/08 11:26:59;;;;;;;1.50;0.80;;;13.90;94.40;;;;;;5132829;27;20680;-81
2022/11/08 11:29:28;;;;;;;0.80;0.80;;;13.90;95.30;;;;;;5116726;27;21224;-81
2022/11/08 11:31:57;;;;;;;1.60;0.83;;;13.70;94.80;;;;;;5111801;28;20715;-81
2022/11/08 11:34:45;;;;;;;1.40;1.30;;;13.80;94.50;;;;;;5112894;28;20620;-81
2022/11/08 11:37:28;;;;;;;2.03;1.37;;;13.80;94.80;;;;;;5111868;28;20655;-81
2022/11/08 11:40:03;;;;;;;1.60;1.17;;;13.70;94.50;;;;;;5113441;28;20616;-81
2022/11/08 11:42:37;;;;;;;0.80;0.80;;;13.80;94.20;;;;;;5111801;28;20611;-81
2022/11/08 11:45:10;;;;;;;1.03;1.03;;;13.80;94.20;;;;;;5113934;28;20955;-81
2022/11/08 11:47:46;;;;;;;0.80;0.80;;;13.80;94.20;;;;;;5113870;28;21232;-81
2022/11/08 11:50:21;;;;;;;0.93;0.93;;;13.90;94.20;;;;;;5114801;28;21079;-81
2022/11/08 11:52:48;;;;;;;0.70;0.70;;;14.00;93.50;;;;;;5114188;28;20630;-82
2022/11/08 11:55:17;;;;;;;0.80;0.80;;;14.10;94.00;;;;;;5115025;28;21264;-82
2022/11/08 11:57:54;;;;;;;0.90;0.90;;;14.30;93.50;;;;;;5113902;28;20655;-81
2022/11/08 12:00:21;;;;;;;1.13;0.80;;;14.30;93.80;;;;;;5131058;27;20725;-81
2022/11/08 12:03:16;;;;;;;1.10;0.60;;;14.50;93.50;;;;;;5135133;27;20615;-81
2022/11/08 12:06:11;;;;;;;1.47;1.13;;;14.60;92.70;;;;;;5136912;27;20658;-81
2022/11/08 12:08:51;;;;;;;0.63;0.63;;;14.90;92.80;;;;;;5136100;27;20717;-81
2022/11/08 12:11:40;;;;;;;0.80;0.70;;;15.00;91.90;;;;;;5135277;27;20613;-81
2022/11/08 12:14:33;;;;;;;0.37;0.33;;;15.20;92.30;;;;;;5134583;27;21129;-81
2022/11/08 12:17:27;;;;;;;0.77;0.40;;;15.30;92.10;;;;;;5133307;27;20765;-81
2022/11/08 12:20:07;;;;;;;0.63;0.63;;;15.30;88.50;;;;;;5127741;27;20729;-82
2022/11/08 12:22:57;;;;;;;1.40;1.00;;;15.40;88.70;;;;;;5134354;27;20617;-81
2022/11/08 12:25:31;;;;;;;0.70;0.60;;;15.40;88.30;;;;;;5134449;27;20643;-81
2022/11/08 12:28:09;;;;;;;0.70;0.70;;;15.50;88.20;;;;;;5128523;27;20722;-81
2022/11/08 12:30:45;;;;;;;0.70;0.60;;;15.50;88.80;;;;;;5112429;28;20622;-81
2022/11/08 12:33:27;;;;;;;1.10;0.50;;;15.60;88.10;;;;;;5111924;28;20726;-82
2022/11/08 12:36:09;;;;;;;1.13;0.60;;;15.90;86.30;;;;;;5114449;28;20727;-81
2022/11/08 12:38:43;;;;;;;0.73;0.50;;;15.90;85.60;;;;;;5112701;28;20619;-81
2022/11/08 12:41:20;;;;;;;1.53;1.43;;;15.80;86.70;;;;;;5114288;28;20646;-81
2022/11/08 12:44:11;;;;;;;1.47;0.70;;;15.80;86.50;;;;;;5113328;28;20620;-81
2022/11/08 12:46:49;;;;;;;0.80;0.70;;;15.90;85.80;;;;;;5111984;28;21273;-81
2022/11/08 12:49:34;;;;;;;0.50;0.50;;;16.10;85.20;;;;;;5112308;28;21094;-81
2022/11/08 12:52:13;;;;;;;1.13;0.70;;;16.10;84.40;;;;;;5115371;28;20708;-81
2022/11/08 12:54:43;;;;;;;0.77;0.60;;;16.20;84.80;;;;;;5115096;28;20624;-81
2022/11/08 12:57:13;;;;;;;0.67;0.67;;;16.10;85.90;;;;;;5114252;28;20770;-81
2022/11/08 12:59:45;;;;;;;0.50;0.50;;;16.00;86.40;;;;;;5124926;27;20723;-81
2022/11/08 13:02:18;;;;;;;0.83;0.83;;;16.20;85.90;;;;;;5133880;27;21050;-81
2022/11/08 13:04:55;;;;;;;2.00;1.17;;;16.20;85.00;;;;;;5132005;27;20614;-81
2022/11/08 13:07:36;;;;;;;0.63;0.63;;;16.30;85.10;;;;;;5132899;27;20615;-81
2022/11/08 13:10:11;;;;;;;1.30;0.97;;;16.30;84.90;;;;;;5131107;27;20642;-81
2022/11/08 13:12:46;;;;;;;1.07;1.00;;;16.40;85.20;;;;;;5132788;27;20694;-81
2022/11/08 13:15:19;;;;;;;0.93;0.83;;;16.30;85.00;;;;;;5131599;27;20632;-81
2022/11/08 13:18:19;;;;;;;1.07;0.60;;;16.30;85.30;;;;;;5130914;27;20694;-81
2022/11/08 13:20:47;;;;;;;1.07;0.77;;;16.30;84.30;;;;;;5126336;27;20702;-81
2022/11/08 13:23:22;;;;;;;0.50;0.50;;;16.20;84.10;;;;;;5131390;27;20709;-81
2022/11/08 13:25:50;;;;;;;1.80;0.77;;;16.20;85.20;;;;;;5131011;27;20618;-81
2022/11/08 13:28:41;;;;;;;0.53;0.53;;;16.20;86.00;;;;;;5123738;27;20751;-80
2022/11/08 13:31:27;;;;;;;0.67;0.67;;;16.20;86.10;;;;;;5110679;28;21088;-80
2022/11/08 13:34:35;;;;;;;0.60;0.60;;;16.20;84.30;;;;;;5099285;28;20666;-80